createdAt,value
2022-12-31T00:01:06.664Z,96.73
2022-12-31T00:03:35.179Z,96.73
2022-12-31T00:06:13.977Z,96.75
2022-12-31T00:08:43.709Z,96.74
2022-12-31T00:11:12.037Z,96.83
2022-12-31T00:13:40.855Z,96.88
2022-12-31T00:16:15.586Z,97.09
2022-12-31T00:18:46.182Z,97.13
2022-12-31T00:21:15.251Z,97.15
2022-12-31T00:23:43.235Z,97.32
2022-12-31T00:26:14.337Z,97.46
2022-12-31T00:28:43.020Z,97.57
2022-12-31T00:31:12.776Z,97.67
2022-12-31T00:33:41.503Z,97.81
2022-12-31T00:36:18.170Z,98.28
2022-12-31T00:38:48.485Z,98.50
2022-12-31T00:41:18.124Z,98.45
2022-12-31T00:43:46.698Z,98.73
2022-12-31T00:46:15.680Z,98.78
2022-12-31T00:48:43.944Z,98.72
2022-12-31T00:51:15.432Z,98.66
2022-12-31T00:53:44.299Z,98.64
2022-12-31T00:56:19.618Z,98.54
2022-12-31T00:58:48.700Z,98.45
2022-12-31T01:01:28.934Z,98.42
2022-12-31T01:04:10.594Z,98.36
2022-12-31T01:06:39.700Z,98.31
2022-12-31T01:09:08.783Z,98.22
2022-12-31T01:11:37.378Z,98.19
2022-12-31T01:14:10.090Z,98.10
2022-12-31T01:16:53.818Z,98.02
2022-12-31T01:19:25.602Z,97.97
2022-12-31T01:21:54.183Z,98.01
2022-12-31T01:24:22.712Z,98.14
2022-12-31T01:26:51.587Z,98.11
2022-12-31T01:29:19.701Z,98.29
2022-12-31T01:31:47.680Z,98.97
2022-12-31T01:34:15.627Z,99.37
2022-12-31T01:36:43.627Z,99.48
2022-12-31T01:39:12.447Z,99.33
2022-12-31T01:41:44.129Z,99.13
2022-12-31T01:44:12.010Z,98.98
2022-12-31T01:46:52.006Z,98.97
2022-12-31T01:49:45.364Z,98.97
2022-12-31T01:52:18.120Z,99.01
2022-12-31T01:54:51.771Z,99.37
2022-12-31T01:57:21.241Z,99.76
2022-12-31T01:59:50.221Z,99.90
2022-12-31T02:02:18.501Z,99.80
2022-12-31T02:04:48.613Z,99.83
2022-12-31T02:07:16.598Z,99.79
2022-12-31T02:09:45.086Z,99.70
2022-12-31T02:12:13.978Z,99.68
2022-12-31T02:14:49.417Z,99.64
2022-12-31T02:17:46.640Z,99.60
2022-12-31T02:20:46.872Z,99.64
2022-12-31T02:23:45.635Z,99.72
2022-12-31T02:26:33.579Z,99.78
2022-12-31T02:29:16.646Z,99.71
2022-12-31T02:32:04.256Z,99.66
2022-12-31T02:34:53.027Z,99.65
2022-12-31T02:37:24.473Z,99.62
2022-12-31T02:39:53.116Z,99.62
2022-12-31T02:42:21.259Z,99.65
2022-12-31T02:45:17.405Z,99.69
2022-12-31T02:48:30.407Z,99.72
2022-12-31T02:51:12.585Z,99.79
2022-12-31T02:53:58.457Z,99.88
2022-12-31T02:56:49.599Z,99.89
2022-12-31T02:59:52.837Z,99.96
2022-12-31T03:02:23.989Z,100.00
2022-12-31T03:04:55.546Z,100.00
2022-12-31T03:07:27.088Z,100.00
2022-12-31T03:09:56.004Z,100.00
2022-12-31T03:12:45.800Z,100.00
2022-12-31T03:15:43.466Z,100.00
2022-12-31T03:18:17.178Z,100.00
2022-12-31T03:21:06.994Z,100.00
2022-12-31T03:23:50.286Z,100.00
2022-12-31T03:26:18.205Z,100.00
2022-12-31T03:28:47.984Z,100.00
2022-12-31T03:31:16.984Z,100.00
2022-12-31T03:33:44.970Z,100.00
2022-12-31T03:36:15.157Z,100.00
2022-12-31T03:38:46.400Z,100.00
2022-12-31T03:41:17.993Z,100.00
2022-12-31T03:43:46.063Z,100.00
2022-12-31T03:46:14.384Z,100.00
2022-12-31T03:48:42.549Z,100.00
2022-12-31T03:51:10.564Z,100.00
2022-12-31T03:53:39.098Z,100.00
2022-12-31T03:56:07.233Z,100.00
2022-12-31T03:58:35.410Z,100.00
2022-12-31T04:01:03.563Z,100.00
2022-12-31T04:03:31.591Z,100.00
2022-12-31T04:05:59.575Z,100.00
2022-12-31T04:08:27.649Z,100.00
2022-12-31T04:10:55.664Z,100.00
2022-12-31T04:13:23.731Z,100.00
2022-12-31T04:15:52.178Z,100.00
2022-12-31T04:18:20.427Z,100.00
2022-12-31T04:20:48.707Z,100.00
2022-12-31T04:23:18.393Z,100.00
2022-12-31T04:25:46.638Z,100.00
2022-12-31T04:28:15.055Z,100.00
2022-12-31T04:30:44.165Z,100.00
2022-12-31T04:33:12.218Z,100.00
2022-12-31T04:35:40.365Z,100.00
2022-12-31T04:38:08.749Z,100.00
2022-12-31T04:40:56.699Z,100.00
2022-12-31T04:43:24.904Z,100.00
2022-12-31T04:45:52.937Z,100.00
2022-12-31T04:48:21.746Z,100.00
2022-12-31T04:50:49.703Z,100.00
2022-12-31T04:53:17.829Z,100.00
2022-12-31T04:55:46.167Z,100.00
2022-12-31T04:58:14.222Z,100.00
2022-12-31T05:00:42.182Z,100.00
2022-12-31T05:03:10.388Z,100.00
2022-12-31T05:05:40.014Z,100.00
2022-12-31T05:08:08.139Z,100.00
2022-12-31T05:10:36.780Z,100.00
2022-12-31T05:13:04.728Z,100.00
2022-12-31T05:15:33.200Z,100.00
2022-12-31T05:18:01.516Z,100.00
2022-12-31T05:20:30.106Z,100.00
2022-12-31T05:22:58.208Z,100.00
2022-12-31T05:25:26.297Z,100.00
2022-12-31T05:27:54.434Z,100.00
2022-12-31T05:30:23.860Z,100.00
2022-12-31T05:32:51.986Z,100.00
2022-12-31T05:35:19.897Z,100.00
2022-12-31T05:37:48.231Z,100.00
2022-12-31T05:40:16.226Z,100.00
2022-12-31T05:42:44.582Z,100.00
2022-12-31T05:45:15.973Z,100.00
2022-12-31T05:47:45.245Z,100.00
2022-12-31T05:50:18.150Z,100.00
2022-12-31T05:52:47.759Z,100.00
2022-12-31T05:55:16.574Z,100.00
2022-12-31T05:57:44.685Z,100.00
2022-12-31T06:00:13.590Z,100.00
2022-12-31T06:02:41.738Z,100.00
2022-12-31T06:05:10.534Z,100.00
2022-12-31T06:07:38.633Z,100.00
2022-12-31T06:10:07.172Z,100.00
2022-12-31T06:12:35.668Z,100.00
2022-12-31T06:15:04.396Z,100.00
2022-12-31T06:17:32.637Z,100.00
2022-12-31T06:20:01.256Z,100.00
2022-12-31T06:22:29.540Z,100.00
2022-12-31T06:24:57.597Z,100.00
2022-12-31T06:27:25.702Z,100.00
2022-12-31T06:29:53.669Z,100.00
2022-12-31T06:32:21.611Z,100.00
2022-12-31T06:34:49.653Z,100.00
2022-12-31T06:37:17.809Z,100.00
2022-12-31T06:39:45.941Z,100.00
2022-12-31T06:42:15.240Z,100.00
2022-12-31T06:44:44.029Z,100.00
2022-12-31T06:47:12.018Z,100.00
2022-12-31T06:49:40.896Z,100.00
2022-12-31T06:52:08.977Z,100.00
2022-12-31T06:54:37.450Z,100.00
2022-12-31T06:57:05.876Z,100.00
2022-12-31T06:59:34.310Z,100.00
2022-12-31T07:02:40.796Z,100.00
2022-12-31T07:05:50.956Z,100.00
2022-12-31T07:08:33.917Z,100.00
2022-12-31T07:11:23.300Z,100.00
2022-12-31T07:13:57.542Z,100.00
2022-12-31T07:16:54.988Z,100.00
2022-12-31T07:19:35.883Z,100.00
2022-12-31T07:22:04.202Z,100.00
2022-12-31T07:24:32.618Z,100.00
2022-12-31T07:27:20.740Z,100.00
2022-12-31T07:30:00.714Z,100.00
2022-12-31T07:32:44.607Z,100.00
2022-12-31T07:35:17.262Z,100.00
2022-12-31T07:37:58.934Z,100.00
2022-12-31T07:40:42.122Z,100.00
2022-12-31T07:43:22.401Z,100.00
2022-12-31T07:46:00.150Z,100.00
2022-12-31T07:48:29.402Z,100.00
2022-12-31T07:50:57.852Z,100.00
2022-12-31T07:53:26.996Z,100.00
2022-12-31T07:55:58.279Z,100.00
2022-12-31T07:58:29.175Z,100.00
2022-12-31T08:00:59.798Z,100.00
2022-12-31T08:03:37.949Z,100.00
2022-12-31T08:06:19.439Z,100.00
2022-12-31T08:08:53.160Z,100.00
2022-12-31T08:11:34.483Z,100.00
2022-12-31T08:14:03.069Z,100.00
2022-12-31T08:16:31.426Z,100.00
2022-12-31T08:18:59.649Z,100.00
2022-12-31T08:21:37.199Z,100.00
2022-12-31T08:24:14.251Z,99.95
2022-12-31T08:26:49.521Z,99.95
2022-12-31T08:29:28.400Z,100.00
2022-12-31T08:32:02.475Z,99.99
2022-12-31T08:34:49.002Z,99.99
2022-12-31T08:37:29.110Z,100.00
2022-12-31T08:39:57.103Z,100.00
2022-12-31T08:42:43.674Z,99.92
2022-12-31T08:45:19.037Z,99.99
2022-12-31T08:48:16.741Z,100.00
2022-12-31T08:50:45.017Z,99.95
2022-12-31T08:53:13.225Z,99.88
2022-12-31T08:55:43.743Z,99.83
2022-12-31T08:58:36.246Z,99.33
2022-12-31T09:01:07.473Z,98.72
2022-12-31T09:03:54.120Z,98.14
2022-12-31T09:06:42.077Z,97.95
2022-12-31T09:09:28.387Z,96.92
2022-12-31T09:12:41.760Z,95.39
2022-12-31T09:15:25.977Z,94.48
2022-12-31T09:17:54.296Z,93.80
2022-12-31T09:20:42.763Z,92.91
2022-12-31T09:23:13.461Z,91.17
2022-12-31T09:25:59.381Z,91.71
2022-12-31T09:29:11.100Z,90.71
2022-12-31T09:32:08.406Z,89.59
2022-12-31T09:34:47.060Z,89.21
2022-12-31T09:37:28.346Z,88.97
2022-12-31T09:40:01.772Z,89.32
2022-12-31T09:42:47.938Z,89.44
2022-12-31T09:45:26.377Z,89.71
2022-12-31T09:48:21.036Z,89.45
2022-12-31T09:51:27.000Z,89.38
2022-12-31T09:54:10.141Z,88.76
2022-12-31T09:57:22.639Z,88.40
2022-12-31T10:00:02.848Z,87.94
2022-12-31T10:02:46.345Z,87.43
2022-12-31T10:05:42.583Z,87.79
2022-12-31T10:08:43.131Z,87.79
2022-12-31T10:11:41.301Z,88.05
2022-12-31T10:14:47.862Z,88.80
2022-12-31T10:17:31.250Z,89.23
2022-12-31T10:20:15.028Z,88.94
2022-12-31T10:22:46.407Z,88.64
2022-12-31T10:25:39.671Z,89.17
2022-12-31T10:28:26.401Z,89.46
2022-12-31T10:31:35.385Z,89.78
2022-12-31T10:34:19.845Z,90.23
2022-12-31T10:37:11.262Z,90.34
2022-12-31T10:39:54.294Z,90.13
2022-12-31T10:42:59.944Z,90.32
2022-12-31T10:45:46.727Z,90.46
2022-12-31T10:48:36.848Z,90.77
2022-12-31T10:51:20.873Z,91.01
2022-12-31T10:54:21.310Z,91.23
2022-12-31T10:57:15.227Z,91.18
2022-12-31T11:00:01.211Z,90.65
2022-12-31T11:02:51.732Z,90.60
2022-12-31T11:05:47.452Z,90.82
2022-12-31T11:08:34.554Z,90.87
2022-12-31T11:11:28.603Z,90.79
2022-12-31T11:14:30.464Z,90.51
2022-12-31T11:17:16.746Z,90.53
2022-12-31T11:20:15.232Z,89.85
2022-12-31T11:22:54.198Z,89.93
2022-12-31T11:25:54.779Z,89.51
2022-12-31T11:28:35.049Z,88.73
2022-12-31T11:31:38.368Z,89.27
2022-12-31T11:34:41.219Z,89.38
2022-12-31T11:37:49.499Z,89.43
2022-12-31T11:40:43.483Z,88.88
2022-12-31T11:43:50.508Z,88.10
2022-12-31T11:46:31.212Z,86.57
2022-12-31T11:49:34.705Z,84.11
2022-12-31T11:52:21.377Z,84.18
2022-12-31T11:55:08.501Z,83.69
2022-12-31T11:57:39.937Z,84.62
2022-12-31T12:00:20.469Z,84.79
2022-12-31T12:02:58.002Z,83.06
2022-12-31T12:05:27.507Z,81.69
2022-12-31T12:07:56.280Z,81.16
2022-12-31T12:10:35.698Z,80.32
2022-12-31T12:13:25.555Z,80.67
2022-12-31T12:15:57.281Z,79.60
2022-12-31T12:18:38.748Z,79.90
2022-12-31T12:21:11.052Z,79.78
2022-12-31T12:23:40.455Z,79.41
2022-12-31T12:26:28.695Z,78.48
2022-12-31T12:29:01.629Z,78.50
2022-12-31T12:31:30.716Z,78.51
2022-12-31T12:33:58.836Z,79.27
2022-12-31T12:36:27.024Z,78.53
2022-12-31T12:39:06.196Z,78.90
2022-12-31T12:41:34.352Z,79.54
2022-12-31T12:44:14.507Z,79.19
2022-12-31T12:46:53.118Z,79.12
2022-12-31T12:49:27.724Z,78.95
2022-12-31T12:52:32.945Z,78.84
2022-12-31T12:55:39.574Z,79.50
2022-12-31T12:58:30.071Z,79.50
2022-12-31T13:01:10.124Z,79.66
2022-12-31T13:04:31.819Z,79.32
2022-12-31T13:07:09.711Z,79.31
2022-12-31T13:09:43.714Z,79.77
2022-12-31T13:12:11.690Z,79.82
2022-12-31T13:14:58.312Z,80.00
2022-12-31T13:18:14.906Z,79.86
2022-12-31T13:20:58.191Z,79.64
2022-12-31T13:23:42.300Z,79.93
2022-12-31T13:26:14.671Z,80.40
2022-12-31T13:28:46.358Z,80.66
2022-12-31T13:31:26.521Z,80.74
2022-12-31T13:34:01.176Z,80.54
2022-12-31T13:36:33.075Z,80.84
2022-12-31T13:39:05.603Z,81.44
2022-12-31T13:41:40.610Z,81.35
2022-12-31T13:44:08.606Z,81.78
2022-12-31T13:46:50.271Z,81.95
2022-12-31T13:49:50.270Z,81.96
2022-12-31T13:52:29.888Z,82.33
2022-12-31T13:55:03.680Z,82.74
2022-12-31T13:57:48.283Z,83.02
2022-12-31T14:00:21.806Z,83.29
2022-12-31T14:03:09.200Z,83.59
2022-12-31T14:05:49.854Z,83.85
2022-12-31T14:08:18.047Z,83.98
2022-12-31T14:11:07.072Z,84.09
2022-12-31T14:13:57.764Z,84.22
2022-12-31T14:16:45.876Z,84.49
2022-12-31T14:19:56.493Z,84.57
2022-12-31T14:22:49.459Z,84.86
2022-12-31T14:25:20.233Z,85.19
2022-12-31T14:27:51.282Z,85.40
2022-12-31T14:30:22.806Z,85.58
2022-12-31T14:33:28.684Z,85.85
2022-12-31T14:36:22.908Z,86.04
2022-12-31T14:39:10.549Z,86.09
2022-12-31T14:42:04.912Z,86.23
2022-12-31T14:45:25.575Z,86.35
2022-12-31T14:48:00.327Z,86.61
2022-12-31T14:50:31.167Z,86.78
2022-12-31T14:52:59.174Z,86.91
2022-12-31T14:55:34.114Z,86.81
2022-12-31T14:58:28.584Z,86.79
2022-12-31T15:00:59.381Z,86.99
2022-12-31T15:03:46.069Z,87.00
2022-12-31T15:06:23.768Z,87.03
2022-12-31T15:09:10.534Z,87.20
2022-12-31T15:12:06.803Z,87.40
2022-12-31T15:15:04.558Z,87.58
2022-12-31T15:17:48.167Z,87.81
2022-12-31T15:20:55.813Z,87.97
2022-12-31T15:23:42.711Z,88.23
2022-12-31T15:26:31.612Z,88.48
2022-12-31T15:29:06.542Z,88.68
2022-12-31T15:31:36.623Z,88.81
2022-12-31T15:34:20.465Z,88.77
2022-12-31T15:36:55.114Z,88.95
2022-12-31T15:39:43.594Z,89.04
2022-12-31T15:42:50.126Z,89.31
2022-12-31T15:45:28.055Z,89.75
2022-12-31T15:48:00.921Z,90.37
2022-12-31T15:50:30.099Z,90.68
2022-12-31T15:53:02.833Z,90.80
2022-12-31T15:55:48.708Z,91.00
2022-12-31T15:58:20.804Z,91.03
2022-12-31T16:01:10.606Z,91.02
2022-12-31T16:03:45.085Z,91.05
2022-12-31T16:06:15.654Z,91.10
2022-12-31T16:08:46.334Z,91.16
2022-12-31T16:11:16.308Z,91.25
2022-12-31T16:13:47.396Z,91.40
2022-12-31T16:16:28.033Z,91.20
2022-12-31T16:18:57.370Z,91.33
2022-12-31T16:21:34.733Z,91.47
2022-12-31T16:24:26.312Z,91.54
2022-12-31T16:26:59.193Z,91.57
2022-12-31T16:29:28.060Z,91.56
2022-12-31T16:31:56.134Z,91.58
2022-12-31T16:34:27.000Z,91.75
2022-12-31T16:36:56.611Z,91.85
2022-12-31T16:39:37.828Z,92.05
2022-12-31T16:42:17.737Z,92.35
2022-12-31T16:44:47.517Z,92.47
2022-12-31T16:47:31.584Z,92.60
2022-12-31T16:50:05.524Z,92.56
2022-12-31T16:52:42.331Z,92.53
2022-12-31T16:55:18.393Z,92.64
2022-12-31T16:57:49.175Z,92.63
2022-12-31T17:00:19.125Z,92.64
2022-12-31T17:03:10.740Z,92.64
2022-12-31T17:06:18.888Z,92.63
2022-12-31T17:09:05.640Z,92.66
2022-12-31T17:11:35.572Z,92.74
2022-12-31T17:14:13.053Z,92.80
2022-12-31T17:17:02.826Z,92.90
2022-12-31T17:19:37.543Z,92.98
2022-12-31T17:22:11.747Z,93.12
2022-12-31T17:24:40.334Z,93.27
2022-12-31T17:27:09.612Z,93.20
2022-12-31T17:29:37.976Z,93.49
2022-12-31T17:32:28.130Z,93.42
2022-12-31T17:34:56.260Z,93.50
2022-12-31T17:37:30.088Z,93.54
2022-12-31T17:40:49.928Z,93.46
2022-12-31T17:42:50.697Z,93.44
2022-12-31T17:45:21.768Z,93.42
2022-12-31T17:47:52.564Z,93.57
2022-12-31T17:50:25.603Z,93.53
2022-12-31T17:53:08.716Z,93.55
2022-12-31T17:55:37.278Z,93.61
2022-12-31T17:58:06.940Z,93.65
2022-12-31T18:00:36.913Z,93.77
2022-12-31T18:03:05.039Z,93.90
2022-12-31T18:05:33.075Z,94.19
2022-12-31T18:08:01.197Z,94.26
2022-12-31T18:10:32.376Z,94.37
2022-12-31T18:13:01.835Z,94.43
2022-12-31T18:15:29.885Z,94.59
2022-12-31T18:17:58.014Z,94.61
2022-12-31T18:20:26.499Z,94.79
2022-12-31T18:22:55.915Z,94.95
2022-12-31T18:25:24.359Z,95.03
2022-12-31T18:27:52.926Z,95.04
2022-12-31T18:30:21.374Z,95.19
2022-12-31T18:32:49.655Z,95.20
2022-12-31T18:35:57.611Z,95.14
2022-12-31T18:38:13.890Z,95.56
2022-12-31T18:40:46.463Z,95.64
2022-12-31T18:43:17.251Z,95.75
2022-12-31T18:45:46.633Z,95.84
2022-12-31T18:48:15.750Z,95.96
2022-12-31T18:50:44.546Z,95.94
2022-12-31T18:53:19.340Z,95.98
2022-12-31T18:55:54.316Z,96.17
2022-12-31T18:58:22.837Z,96.25
2022-12-31T19:00:52.187Z,96.57
2022-12-31T19:03:24.044Z,96.60
2022-12-31T19:05:52.263Z,96.74
2022-12-31T19:08:22.468Z,96.87
2022-12-31T19:10:52.188Z,96.78
2022-12-31T19:13:21.063Z,96.80
2022-12-31T19:15:53.385Z,96.88
2022-12-31T19:18:21.502Z,96.97
2022-12-31T19:20:52.172Z,97.02
2022-12-31T19:23:22.600Z,97.09
2022-12-31T19:25:50.767Z,97.15
2022-12-31T19:28:27.219Z,97.26
2022-12-31T19:30:55.764Z,97.40
2022-12-31T19:33:23.724Z,97.46
2022-12-31T19:35:51.742Z,97.46
2022-12-31T19:38:25.327Z,97.56
2022-12-31T19:40:53.804Z,97.47
2022-12-31T19:43:23.652Z,97.41
2022-12-31T19:45:52.351Z,97.50
2022-12-31T19:48:30.317Z,97.58
2022-12-31T19:51:00.465Z,97.62
2022-12-31T19:53:28.876Z,97.51
2022-12-31T19:55:56.852Z,97.50
2022-12-31T19:58:27.006Z,97.51
2022-12-31T20:01:02.323Z,97.63
2022-12-31T20:03:33.212Z,97.66
2022-12-31T20:06:06.562Z,97.82
2022-12-31T20:08:36.178Z,98.15
2022-12-31T20:11:19.146Z,98.09
2022-12-31T20:13:49.609Z,98.33
2022-12-31T20:16:20.463Z,98.40
2022-12-31T20:18:50.648Z,98.38
2022-12-31T20:21:24.408Z,98.35
2022-12-31T20:23:53.907Z,98.48
2022-12-31T20:26:24.444Z,98.39
2022-12-31T20:28:53.350Z,98.30
2022-12-31T20:31:24.499Z,98.29
2022-12-31T20:33:54.369Z,98.33
2022-12-31T20:36:23.226Z,98.19
2022-12-31T20:38:51.468Z,98.33
2022-12-31T20:41:22.091Z,98.51
2022-12-31T20:43:51.504Z,98.45
2022-12-31T20:46:23.215Z,98.46
2022-12-31T20:48:53.839Z,98.56
2022-12-31T20:51:23.946Z,98.60
2022-12-31T20:53:57.418Z,98.76
2022-12-31T20:56:30.676Z,98.76
2022-12-31T20:58:59.374Z,98.88
2022-12-31T21:01:41.863Z,98.99
2022-12-31T21:04:15.812Z,99.05
2022-12-31T21:06:44.066Z,99.11
2022-12-31T21:09:12.042Z,99.02
2022-12-31T21:11:58.559Z,99.04
2022-12-31T21:14:26.509Z,99.16
2022-12-31T21:16:54.486Z,98.94
2022-12-31T21:19:22.555Z,98.97
2022-12-31T21:21:51.330Z,98.87
2022-12-31T21:24:23.877Z,98.85
2022-12-31T21:26:55.704Z,98.98
2022-12-31T21:29:23.752Z,99.09
2022-12-31T21:31:51.751Z,99.20
2022-12-31T21:34:19.938Z,99.10
2022-12-31T21:36:48.021Z,99.10
2022-12-31T21:39:16.091Z,99.17
2022-12-31T21:41:52.931Z,99.13
2022-12-31T21:44:24.721Z,99.09
2022-12-31T21:47:35.012Z,99.11
2022-12-31T21:50:05.426Z,99.07
2022-12-31T21:52:36.182Z,99.04
2022-12-31T21:55:24.039Z,98.97
2022-12-31T21:58:24.713Z,98.86
2022-12-31T22:00:59.535Z,98.98
2022-12-31T22:03:28.697Z,98.99
2022-12-31T22:06:12.362Z,99.07
2022-12-31T22:08:42.015Z,99.15
2022-12-31T22:11:11.789Z,99.18
2022-12-31T22:13:40.345Z,99.15
2022-12-31T22:16:09.565Z,99.25
2022-12-31T22:18:39.524Z,99.29
2022-12-31T22:21:18.900Z,99.20
2022-12-31T22:23:50.425Z,99.11
2022-12-31T22:26:22.107Z,99.13
2022-12-31T22:28:51.475Z,98.99
2022-12-31T22:31:24.480Z,98.71
2022-12-31T22:33:53.251Z,98.81
2022-12-31T22:36:23.330Z,98.82
2022-12-31T22:38:55.958Z,98.90
2022-12-31T22:41:25.688Z,98.95
2022-12-31T22:44:03.143Z,99.00
2022-12-31T22:46:32.783Z,98.95
2022-12-31T22:49:02.997Z,98.92
2022-12-31T22:51:55.909Z,98.90
2022-12-31T22:54:21.638Z,98.77
2022-12-31T22:56:49.652Z,98.71
2022-12-31T22:59:17.820Z,98.85
2022-12-31T23:01:46.239Z,98.80
2022-12-31T23:04:15.486Z,98.84
2022-12-31T23:06:43.647Z,98.92
2022-12-31T23:09:34.443Z,98.98
2022-12-31T23:12:03.815Z,98.98
2022-12-31T23:14:50.504Z,98.97
2022-12-31T23:17:42.776Z,99.14
2022-12-31T23:20:36.204Z,99.23
2022-12-31T23:23:08.680Z,99.24
2022-12-31T23:25:49.207Z,99.14
2022-12-31T23:28:20.577Z,99.24
2022-12-31T23:30:51.349Z,99.15
2022-12-31T23:33:23.929Z,99.25
2022-12-31T23:36:05.341Z,99.28
2022-12-31T23:38:33.587Z,99.39
2022-12-31T23:41:12.497Z,99.52
2022-12-31T23:43:40.553Z,99.53
2022-12-31T23:46:08.658Z,99.65
2022-12-31T23:48:36.681Z,99.55
2022-12-31T23:51:05.388Z,99.56
2022-12-31T23:53:33.925Z,99.69
2022-12-31T23:56:14.841Z,99.77
2022-12-31T23:58:45.686Z,99.81
